KFUL/FUL METAR and TAF weather

Enter ICAO airport designator
Station Type Date Time Source
KFUL METAR 2022/07/03 12:53 UTC NOAA

KFUL 031253Z AUTO 00000KT 10SM OVC022 18/13 A2992 RMK AO2 SLP130 T01830133


Station Type Date Time Source
KFUL Decoded METAR 2022/07/03 12:53 UTC NOAA

FULLERTON MUNICIPAL AIRPORT , CA, United States (KFUL) 33-52N 117-59W 35M
Jul 03, 2022 - 08:53 AM EDT / 2022.07.03 1253 UTC
Wind: Calm:0
Visibility: 10 mile(s):0
Sky conditions: overcast
Temperature: 64.9 F (18.3 C)
Dew Point: 55.9 F (13.3 C)
Relative Humidity: 72%
Pressure (altimeter): 29.92 in. Hg (1013 hPa)
ob: KFUL 031253Z AUTO 00000KT 10SM OVC022 18/13 A2992 RMK AO2 SLP130 T01830133
cycle: 13

Station Type Date Time Source
KFUL TAF UTC NOAA

Error!

Example: see airport list